^^
Datos históricos de la estación: Murcia-Puente Tocinos
Diario Informe para Enero 21, 2019 Unidades:  Ambas    Ingés   Métrico
Diario Semanal Mensual Anual
  Máxima: Mínima: Promedio:
Temperatura: 77.2 °F /  25.1 °C 62.1 °F /  16.7 °C 66.9 °F /  19.4 °C
Punto de rocio: 61.5 °F /  16.4 °C 53.1 °F /  11.7 °C 58.3 °F /  14.6 °C
Humedad: 89% 44.4% 75%
Velocidad viento: 11.2mph /  18km/h - 4.4mph /  7.1km/h
Racha viento: 21mph /  33.8km/h - -
Viento- - Este
Presión: 30 in /  1015.9 hPa 29.9 in /  1011.6 hPa -
Precipitación: 0.1 in /  2.6 mm    
 
 
Tabla de datos para Enero 21, 2019
Hora Temperatura Punto de rocio Presión Viento Velocidad viento Racha viento Humedad Intensidad lluvia(por hora) Nubes
00:04 64.8 °F /  18.2 °C 59.5 °F /  15.3 °C 29.9in /  1012.4hPa NE 5.4mph /  8.7km/h 9.2mph /  14.8km/h 83% 0in /  0.0mm
00:09 64.8 °F /  18.2 °C 59.5 °F /  15.3 °C 29.9in /  1012.4hPa NE 5.3mph /  8.6km/h 9mph /  14.5km/h 83% 0in /  0.0mm
00:14 64.8 °F /  18.2 °C 59.5 °F /  15.3 °C 29.9in /  1012.4hPa NE 5.2mph /  8.4km/h 8.1mph /  13km/h 83% 0in /  0.0mm
00:19 64.8 °F /  18.2 °C 59.5 °F /  15.3 °C 29.9in /  1012.4hPa NE 4.8mph /  7.8km/h 8mph /  12.9km/h 83% 0in /  0.0mm
00:24 64.8 °F /  18.2 °C 59.5 °F /  15.3 °C 29.9in /  1012.3hPa ENE 4.3mph /  6.9km/h 8.1mph /  13km/h 83% 0in /  0.0mm
00:29 64.9 °F /  18.3 °C 59.7 °F /  15.4 °C 29.9in /  1012.3hPa ENE 4.7mph /  7.5km/h 8.1mph /  13km/h 83% 0in /  0.0mm
00:34 64.9 °F /  18.3 °C 59.7 °F /  15.4 °C 29.9in /  1012.3hPa NE 5.2mph /  8.4km/h 8.1mph /  13km/h 83% 0in /  0.0mm
00:39 64.9 °F /  18.3 °C 59.7 °F /  15.4 °C 29.9in /  1012.3hPa NNE 4.7mph /  7.6km/h 8mph /  12.9km/h 83% 0in /  0.0mm
00:44 64.8 °F /  18.2 °C 59.5 °F /  15.3 °C 29.9in /  1012.3hPa NNE 4mph /  6.5km/h 6.9mph /  11.1km/h 83% 0in /  0.0mm
00:49 64.6 °F /  18.1 °C 59.4 °F /  15.2 °C 29.9in /  1012.3hPa NNE 4mph /  6.5km/h 7mph /  11.3km/h 83% 0in /  0.0mm
00:54 64.4 °F /  18 °C 59.2 °F /  15.1 °C 29.9in /  1012.3hPa NNE 4mph /  6.5km/h 6.9mph /  11.1km/h 83.4% 0in /  0.0mm
00:59 64.2 °F /  17.9 °C 59.4 °F /  15.2 °C 29.9in /  1012.3hPa NNE 4mph /  6.5km/h 7mph /  11.3km/h 84% 0in /  0.0mm
01:04 64.2 °F /  17.9 °C 59.4 °F /  15.2 °C 29.9in /  1012.3hPa NNE 4mph /  6.5km/h 7mph /  11.3km/h 84% 0in /  0.0mm
01:09 64.2 °F /  17.9 °C 59.4 °F /  15.2 °C 29.9in /  1012.2hPa NNE 4.3mph /  6.9km/h 8.1mph /  13km/h 84% 0in /  0.0mm
01:14 64.2 °F /  17.9 °C 59.4 °F /  15.2 °C 29.9in /  1012.2hPa NNE 4.7mph /  7.6km/h 8mph /  12.9km/h 84% 0in /  0.0mm
01:19 64.2 °F /  17.9 °C 59.2 °F /  15.1 °C 29.9in /  1012.3hPa NNE 4.7mph /  7.5km/h 8.1mph /  13km/h 84% 0in /  0.0mm
01:24 64 °F /  17.8 °C 59.2 °F /  15.1 °C 29.9in /  1012.3hPa NNE 4.3mph /  6.9km/h 8mph /  12.9km/h 84% 0in /  0.0mm
01:29 64 °F /  17.8 °C 59.4 °F /  15.2 °C 29.9in /  1012.3hPa NNE 3.9mph /  6.3km/h 6.2mph /  10km/h 84.4% 0in /  0.0mm
01:34 64 °F /  17.8 °C 59.4 °F /  15.2 °C 29.9in /  1012.3hPa NNE 3.1mph /  5km/h 6.9mph /  11.1km/h 85% 0in /  0.0mm
01:39 64 °F /  17.8 °C 59.4 °F /  15.2 °C 29.9in /  1012.3hPa NE 3.4mph /  5.5km/h 7mph /  11.3km/h 85% 0in /  0.0mm
01:44 64 °F /  17.8 °C 59.4 °F /  15.2 °C 29.9in /  1012.3hPa NNE 4mph /  6.5km/h 6mph /  9.7km/h 85% 0in /  0.0mm
01:49 64 °F /  17.8 °C 59.4 °F /  15.2 °C 29.9in /  1012.3hPa NE 3.7mph /  5.9km/h 5mph /  8km/h 85% 0in /  0.0mm
01:54 64 °F /  17.8 °C 59.4 °F /  15.2 °C 29.9in /  1012.3hPa NE 3.1mph /  5km/h 5.2mph /  8.4km/h 85% 0in /  0.0mm
01:59 64 °F /  17.8 °C 59.4 °F /  15.2 °C 29.9in /  1012.3hPa NE 3.3mph /  5.3km/h 5.9mph /  9.5km/h 85% 0in /  0.0mm
02:04 64 °F /  17.8 °C 59.4 °F /  15.2 °C 29.9in /  1012.3hPa NE 3.6mph /  5.8km/h 6mph /  9.7km/h 85% 0in /  0.0mm
02:09 64 °F /  17.8 °C 59.4 °F /  15.2 °C 29.9in /  1012.2hPa NE 3.6mph /  5.8km/h 6mph /  9.7km/h 85% 0in /  0.0mm
02:14 64 °F /  17.8 °C 59.4 °F /  15.2 °C 29.9in /  1012.2hPa NE 3.6mph /  5.8km/h 5mph /  8km/h 85% 0in /  0.0mm
02:19 64 °F /  17.8 °C 59.4 °F /  15.2 °C 29.9in /  1012.2hPa NE 3.2mph /  5.1km/h 5mph /  8km/h 85% 0in /  0.0mm
02:24 64 °F /  17.8 °C 59.4 °F /  15.2 °C 29.9in /  1012.2hPa NE 2.4mph /  3.9km/h 4.6mph /  7.4km/h 85% 0in /  0.0mm
02:29 64 °F /  17.8 °C 59.4 °F /  15.2 °C 29.9in /  1012.2hPa NE 2.4mph /  3.9km/h 5mph /  8km/h 85% 0in /  0.0mm
02:34 64 °F /  17.8 °C 59.4 °F /  15.2 °C 29.9in /  1012.2hPa NE 2.4mph /  3.9km/h 5mph /  8km/h 85% 0in /  0.0mm
02:39 64 °F /  17.8 °C 59.4 °F /  15.2 °C 29.9in /  1012.1hPa NE 2.2mph /  3.5km/h 3.5mph /  5.6km/h 85% 0in /  0.0mm
02:44 64 °F /  17.8 °C 59.4 °F /  15.2 °C 29.9in /  1012.1hPa NE 1.8mph /  2.9km/h 2mph /  3.2km/h 85% 0in /  0.0mm
02:49 64 °F /  17.8 °C 59.4 °F /  15.2 °C 29.9in /  1012.1hPa NE 1.1mph /  1.8km/h 4mph /  6.4km/h 85% 0in /  0.0mm
02:54 64 °F /  17.8 °C 59.4 °F /  15.2 °C 29.9in /  1011.9hPa Calm   5mph /  8km/h 85% 0in /  0.0mm
02:59 63.9 °F /  17.7 °C 59.4 °F /  15.2 °C 29.9in /  1011.9hPa NNE 0.8mph /  1.3km/h 5mph /  8km/h 85% 0in /  0.0mm
03:04 63.9 °F /  17.7 °C 59.4 °F /  15.2 °C 29.9in /  1011.9hPa NNE 2mph /  3.2km/h 4mph /  6.4km/h 85% 0in /  0.0mm
03:09 63.9 °F /  17.7 °C 59.4 °F /  15.2 °C 29.9in /  1011.9hPa NNE 1.2mph /  2km/h 3mph /  4.8km/h 85% 0in /  0.0mm
03:14 63.9 °F /  17.7 °C 59.4 °F /  15.2 °C 29.9in /  1011.9hPa Calm     85% 0in /  0.0mm
03:19 63.7 °F /  17.6 °C 59.2 °F /  15.1 °C 29.9in /  1011.9hPa Calm     85.4% 0in /  0.0mm
03:24 63.7 °F /  17.6 °C 59.4 °F /  15.2 °C 29.9in /  1011.8hPa Calm   4mph /  6.4km/h 86% 0in /  0.0mm
03:29 63.7 °F /  17.6 °C 59.4 °F /  15.2 °C 29.9in /  1011.8hPa NNE 0.5mph /  0.8km/h 5mph /  8km/h 86% 0in /  0.0mm
03:34 63.7 °F /  17.6 °C 59.4 °F /  15.2 °C 29.9in /  1011.8hPa NNE 1.4mph /  2.2km/h 4mph /  6.4km/h 86% 0in /  0.0mm
03:39 63.7 °F /  17.6 °C 59.4 °F /  15.2 °C 29.9in /  1011.8hPa NNE 1.6mph /  2.6km/h 3.6mph /  5.8km/h 86% 0in /  0.0mm
03:44 63.7 °F /  17.6 °C 59.4 °F /  15.2 °C 29.9in /  1011.8hPa NNE 2mph /  3.2km/h 4mph /  6.4km/h 86% 0in /  0.0mm
03:49 63.7 °F /  17.6 °C 59.4 °F /  15.2 °C 29.9in /  1011.9hPa NE 1.9mph /  3.1km/h 4.6mph /  7.4km/h 86% 0in /  0.0mm
03:54 63.7 °F /  17.6 °C 59.4 °F /  15.2 °C 29.9in /  1011.9hPa NE 1.8mph /  2.9km/h 5mph /  8km/h 86% 0in /  0.0mm
03:59 63.7 °F /  17.6 °C 59.4 °F /  15.2 °C 29.9in /  1011.9hPa NE 1.6mph /  2.6km/h 4.6mph /  7.4km/h 85.8% 0in /  0.0mm
04:04 63.5 °F /  17.5 °C 58.8 °F /  14.9 °C 29.9in /  1011.9hPa NE 1.4mph /  2.2km/h 5mph /  8km/h 85% 0in /  0.0mm
04:09 63.3 °F /  17.4 °C 58.6 °F /  14.8 °C 29.9in /  1011.7hPa NE 1.8mph /  2.9km/h 5mph /  8km/h 85% 0in /  0.0mm
04:14 63.1 °F /  17.3 °C 58.3 °F /  14.6 °C 29.9in /  1011.7hPa NE 2.4mph /  3.9km/h 4.6mph /  7.4km/h 84.2% 0in /  0.0mm
04:19 63.1 °F /  17.3 °C 58.3 °F /  14.6 °C 29.9in /  1011.7hPa NE 2.4mph /  3.9km/h 5mph /  8km/h 84.3% 0in /  0.0mm
04:24 63.1 °F /  17.3 °C 58.6 °F /  14.8 °C 29.9in /  1011.7hPa NE 2.4mph /  3.9km/h 5mph /  8km/h 85% 0in /  0.0mm
04:29 63.1 °F /  17.3 °C 58.6 °F /  14.8 °C 29.9in /  1011.7hPa NE 2mph /  3.2km/h 3mph /  4.8km/h 85% 0in /  0.0mm
04:34 63.1 °F /  17.3 °C 58.5 °F /  14.7 °C 29.9in /  1011.7hPa NE 1.4mph /  2.2km/h 4.6mph /  7.4km/h 84.8% 0in /  0.0mm
04:39 63.1 °F /  17.3 °C 58.5 °F /  14.7 °C 29.9in /  1011.7hPa NE 1.6mph /  2.6km/h 5mph /  8km/h 84.6% 0in /  0.0mm
04:44 63.1 °F /  17.3 °C 58.5 °F /  14.7 °C 29.9in /  1011.7hPa NE 2mph /  3.2km/h 5mph /  8km/h 84.9% 0in /  0.0mm
04:49 63.1 °F /  17.3 °C 59 °F /  15 °C 29.9in /  1011.7hPa NE 2.4mph /  3.9km/h 5mph /  8km/h 85.9% 0in /  0.0mm
04:54 63.1 °F /  17.3 °C 58.8 °F /  14.9 °C 29.9in /  1011.6hPa NE 3.1mph /  5km/h 5mph /  8km/h 86% 0in /  0.0mm
04:59 63.1 °F /  17.3 °C 59.2 °F /  15.1 °C 29.9in /  1011.6hPa ENE 2.7mph /  4.3km/h 5mph /  8km/h 87% 0in /  0.0mm
05:04 63.1 °F /  17.3 °C 59 °F /  15 °C 29.9in /  1012.0hPa SE 2mph /  3.2km/h 4.7mph /  7.6km/h 86% 0in /  0.0mm
05:09 63.1 °F /  17.3 °C 58.8 °F /  14.9 °C 29.9in /  1012.0hPa ESE 2mph /  3.2km/h 5mph /  8km/h 86% 0in /  0.0mm
05:14 63.1 °F /  17.3 °C 58.8 °F /  14.9 °C 29.9in /  1012.0hPa ESE 2mph /  3.2km/h 4mph /  6.4km/h 85.8% 0in /  0.0mm
05:19 63.1 °F /  17.3 °C 58.6 °F /  14.8 °C 29.9in /  1012.0hPa ESE 1.9mph /  3.1km/h 5mph /  8km/h 85% 0in /  0.0mm
05:24 63.1 °F /  17.3 °C 58.6 °F /  14.8 °C 29.9in /  1012.0hPa ESE 1.8mph /  2.9km/h 5mph /  8km/h 85% 0in /  0.0mm
05:29 63.3 °F /  17.4 °C 58.6 °F /  14.8 °C 29.9in /  1012.0hPa ESE 1.9mph /  3km/h 4mph /  6.4km/h 85% 0in /  0.0mm
05:34 63.3 °F /  17.4 °C 58.6 °F /  14.8 °C 29.9in /  1012.0hPa Este 2mph /  3.2km/h 5.8mph /  9.3km/h 84.7% 0in /  0.0mm
05:39 63.1 °F /  17.3 °C 58.3 °F /  14.6 °C 29.9in /  1011.8hPa NE 2.3mph /  3.7km/h 6mph /  9.7km/h 84% 0in /  0.0mm
05:44 63 °F /  17.2 °C 58.3 °F /  14.6 °C 29.9in /  1011.8hPa NE 2.9mph /  4.7km/h 5mph /  8km/h 84.6% 0in /  0.0mm
05:49 63 °F /  17.2 °C 58.6 °F /  14.8 °C 29.9in /  1011.8hPa ENE 2.7mph /  4.4km/h 5.8mph /  9.3km/h 85.7% 0in /  0.0mm
05:54 62.8 °F /  17.1 °C 58.8 °F /  14.9 °C 29.9in /  1011.7hPa ESE 2.4mph /  3.9km/h 6.9mph /  11.1km/h 86.8% 0in /  0.0mm
05:59 62.8 °F /  17.1 °C 58.8 °F /  14.9 °C 29.9in /  1011.7hPa SE 2.7mph /  4.3km/h 7mph /  11.3km/h 87% 0in /  0.0mm
06:04 62.8 °F /  17.1 °C 58.8 °F /  14.9 °C 29.9in /  1011.9hPa Oeste 3.1mph /  5km/h 5.8mph /  9.3km/h 87% 0in /  0.0mm
06:09 62.8 °F /  17.1 °C 58.8 °F /  14.9 °C 29.9in /  1011.9hPa NNO 2.9mph /  4.6km/h 6mph /  9.7km/h 87% 0in /  0.0mm
06:14 62.8 °F /  17.1 °C 59 °F /  15 °C 29.9in /  1011.9hPa NNE 2.4mph /  3.9km/h 5mph /  8km/h 87.6% 0in /  0.0mm
06:19 62.8 °F /  17.1 °C 59.2 °F /  15.1 °C 29.9in /  1011.9hPa NNE 2.2mph /  3.5km/h 4.6mph /  7.4km/h 88% 0in /  0.0mm
06:24 62.4 °F /  16.9 °C 58.8 °F /  14.9 °C 29.9in /  1011.9hPa NE 1.8mph /  2.9km/h 5.8mph /  9.3km/h 88% 0in /  0.0mm
06:29 62.4 °F /  16.9 °C 58.8 °F /  14.9 °C 29.9in /  1011.9hPa NE 2.1mph /  3.3km/h 6mph /  9.7km/h 88% 0in /  0.0mm
06:34 62.4 °F /  16.9 °C 58.8 °F /  14.9 °C 29.9in /  1012.1hPa NE 2.4mph /  3.9km/h 3.1mph /  5km/h 88% 0in /  0.0mm
06:39 62.4 °F /  16.9 °C 58.8 °F /  14.9 °C 29.9in /  1012.1hPa NE 2.1mph /  3.3km/h 3.5mph /  5.6km/h 88% 0in /  0.0mm
06:44 62.4 °F /  16.9 °C 58.8 °F /  14.9 °C 29.9in /  1012.1hPa NNE 1.4mph /  2.2km/h 4.7mph /  7.6km/h 88% 0in /  0.0mm
06:49 62.2 °F /  16.8 °C 58.6 °F /  14.8 °C 29.9in /  1012.4hPa NO 1.6mph /  2.6km/h 5.8mph /  9.3km/h 88% 0in /  0.0mm
06:54 62.2 °F /  16.8 °C 59 °F /  15 °C 29.9in /  1012.4hPa NNO 2mph /  3.2km/h 6mph /  9.7km/h 88.9% 0in /  0.0mm
06:59 62.2 °F /  16.8 °C 59 °F /  15 °C 29.9in /  1012.4hPa NNO 2mph /  3.2km/h 5mph /  8km/h 89% 0in /  0.0mm
07:04 62.2 °F /  16.8 °C 59 °F /  15 °C 29.9in /  1012.5hPa NNO 2mph /  3.2km/h 3.6mph /  5.8km/h 89% 0in /  0.0mm
07:09 62.2 °F /  16.8 °C 59 °F /  15 °C 29.9in /  1012.5hPa NNO 1.9mph /  3.1km/h 4mph /  6.4km/h 89% 0in /  0.0mm
07:14 62.2 °F /  16.8 °C 59 °F /  15 °C 29.9in /  1012.5hPa NNO 1.8mph /  2.9km/h 2mph /  3.2km/h 89% 0in /  0.0mm
07:19 62.2 °F /  16.8 °C 59 °F /  15 °C 29.9in /  1012.6hPa NNO 1.1mph /  1.8km/h   89% 0in /  0.0mm
07:24 62.2 °F /  16.8 °C 59 °F /  15 °C 29.9in /  1012.6hPa Calm   3.6mph /  5.8km/h 89% 0in /  0.0mm
07:29 62.4 °F /  16.9 °C 59 °F /  15 °C 29.9in /  1012.6hPa NNO 0.5mph /  0.8km/h 4mph /  6.4km/h 88.5% 0in /  0.0mm
07:34 62.4 °F /  16.9 °C 58.8 °F /  14.9 °C 29.9in /  1012.7hPa NNO 1.4mph /  2.2km/h 4mph /  6.4km/h 88% 0in /  0.0mm
07:39 62.6 °F /  17 °C 59 °F /  15 °C 29.9in /  1012.7hPa ENE 1.6mph /  2.6km/h 4.6mph /  7.4km/h 88% 0in /  0.0mm
07:44 62.8 °F /  17.1 °C 59.2 °F /  15.1 °C 29.9in /  1012.7hPa ESE 2mph /  3.2km/h 5mph /  8km/h 88% 0in /  0.0mm
07:49 62.8 °F /  17.1 °C 59.2 °F /  15.1 °C 29.9in /  1012.8hPa Este 2.4mph /  3.8km/h 5mph /  8km/h 88% 0in /  0.0mm
07:54 62.8 °F /  17.1 °C 59.2 °F /  15.1 °C 29.9in /  1012.8hPa Este 2.9mph /  4.7km/h 5mph /  8km/h 88% 0in /  0.0mm
07:59 62.8 °F /  17.1 °C 59.2 °F /  15.1 °C 29.9in /  1012.8hPa Este 2.5mph /  4km/h 4mph /  6.4km/h 88% 0in /  0.0mm
08:04 63 °F /  17.2 °C 59.2 °F /  15.1 °C 29.9in /  1012.9hPa Este 2mph /  3.2km/h 3mph /  4.8km/h 88% 0in /  0.0mm
08:09 63 °F /  17.2 °C 59.4 °F /  15.2 °C 29.9in /  1012.9hPa Este 1.7mph /  2.8km/h 3.5mph /  5.6km/h 88% 0in /  0.0mm
08:14 63.1 °F /  17.3 °C 59.4 °F /  15.2 °C 29.9in /  1012.9hPa Este 1.4mph /  2.2km/h 4.6mph /  7.4km/h 88% 0in /  0.0mm
08:19 63.1 °F /  17.3 °C 59.5 °F /  15.3 °C 29.9in /  1013.0hPa Este 1.6mph /  2.5km/h 5mph /  8km/h 88% 0in /  0.0mm
08:24 63.3 °F /  17.4 °C 59.7 °F /  15.4 °C 29.9in /  1013.0hPa NE 1.8mph /  2.9km/h 4.6mph /  7.4km/h 88% 0in /  0.0mm
08:29 63.3 °F /  17.4 °C 59.7 °F /  15.4 °C 29.9in /  1013.0hPa ENE 1.8mph /  2.9km/h 5mph /  8km/h 88% 0in /  0.0mm
08:34 63.3 °F /  17.4 °C 59.7 °F /  15.4 °C 29.9in /  1013.1hPa ENE 1.8mph /  2.9km/h 5mph /  8km/h 88% 0in /  0.0mm
08:39 63.5 °F /  17.5 °C 59.9 °F /  15.5 °C 29.9in /  1013.1hPa NNE 1.9mph /  3km/h 4.6mph /  7.4km/h 88% 0in /  0.0mm
08:44 63.7 °F /  17.6 °C 60.1 °F /  15.6 °C 29.9in /  1013.1hPa NNE 2mph /  3.2km/h 5.8mph /  9.3km/h 88% 0in /  0.0mm
08:49 64 °F /  17.8 °C 60.4 °F /  15.8 °C 29.9in /  1013.2hPa NNE 2.4mph /  3.8km/h 6mph /  9.7km/h 88.3% 0in /  0.0mm
08:54 64.4 °F /  18 °C 60.6 °F /  15.9 °C 29.9in /  1013.2hPa NNE 2.9mph /  4.7km/h 6.9mph /  11.1km/h 87.3% 0in /  0.0mm
08:59 64.8 °F /  18.2 °C 60.8 °F /  16 °C 29.9in /  1013.2hPa NNE 3mph /  4.8km/h 7mph /  11.3km/h 86.8% 0in /  0.0mm
09:04 65.1 °F /  18.4 °C 60.6 °F /  15.9 °C 29.9in /  1013.2hPa NE 3.1mph /  5km/h 6.9mph /  11.1km/h 85.8% 0in /  0.0mm
09:09 65.1 °F /  18.4 °C 60.6 °F /  15.9 °C 29.9in /  1013.1hPa NE 3.5mph /  5.7km/h 9.2mph /  14.8km/h 85.4% 0in /  0.0mm
09:14 65.1 °F /  18.4 °C 60.6 °F /  15.9 °C 29.9in /  1013.1hPa NE 4.3mph /  6.9km/h 10.4mph /  16.7km/h 85.6% 0in /  0.0mm
09:19 65.3 °F /  18.5 °C 60.8 °F /  16 °C 29.9in /  1013.1hPa NE 4.9mph /  7.9km/h 10mph /  16.1km/h 85.7% 0in /  0.0mm
09:24 65.5 °F /  18.6 °C 60.8 °F /  16 °C 29.9in /  1013.0hPa ENE 5.9mph /  9.5km/h 10.2mph /  16.4km/h 85.3% 0in /  0.0mm
09:29 65.5 °F /  18.6 °C 60.8 °F /  16 °C 29.9in /  1013.0hPa ENE 5.5mph /  8.8km/h 10mph /  16.1km/h 85% 0in /  0.0mm
09:34 65.7 °F /  18.7 °C 60.8 °F /  16 °C 29.9in /  1013.2hPa ENE 4.7mph /  7.6km/h 8mph /  12.9km/h 85% 0in /  0.0mm
09:39 65.7 °F /  18.7 °C 60.8 °F /  16 °C 29.9in /  1013.2hPa NE 4.7mph /  7.6km/h 9.2mph /  14.8km/h 84.7% 0in /  0.0mm
09:44 65.7 °F /  18.7 °C 61 °F /  16.1 °C 29.9in /  1013.2hPa NE 4.7mph /  7.6km/h 9.7mph /  15.6km/h 84.5% 0in /  0.0mm
09:49 65.7 °F /  18.7 °C 60.8 °F /  16 °C 29.9in /  1013.4hPa NE 5mph /  8km/h 10mph /  16.1km/h 84% 0in /  0.0mm
09:54 65.7 °F /  18.7 °C 61 °F /  16.1 °C 29.9in /  1013.4hPa NNE 5.4mph /  8.7km/h 9mph /  14.5km/h 84.7% 0in /  0.0mm
09:59 65.8 °F /  18.8 °C 61 °F /  16.1 °C 29.9in /  1013.4hPa NE 5.3mph /  8.6km/h 8.1mph /  13km/h 84.8% 0in /  0.0mm
10:04 66.4 °F /  19.1 °C 61.3 °F /  16.3 °C 29.9in /  1013.4hPa NE 5.2mph /  8.4km/h 8mph /  12.9km/h 83.9% 0in /  0.0mm
10:09 66.9 °F /  19.4 °C 61.2 °F /  16.2 °C 29.9in /  1013.4hPa ENE 4.8mph /  7.8km/h 8.7mph /  14km/h 81.6% 0in /  0.0mm
10:14 67.3 °F /  19.6 °C 61 °F /  16.1 °C 29.9in /  1013.4hPa NE 4.3mph /  6.9km/h 9.2mph /  14.8km/h 80.5% 0in /  0.0mm
10:19 67.3 °F /  19.6 °C 61.2 °F /  16.2 °C 29.9in /  1013.5hPa NE 4.7mph /  7.6km/h 9mph /  14.5km/h 81% 0in /  0.0mm
10:24 67.5 °F /  19.7 °C 61.5 °F /  16.4 °C 29.9in /  1013.5hPa NE 5.4mph /  8.7km/h 9.2mph /  14.8km/h 81.4% 0in /  0.0mm
10:29 67.3 °F /  19.6 °C 60.8 °F /  16 °C 29.9in /  1013.5hPa NE 5mph /  8km/h 9.7mph /  15.6km/h 80% 0in /  0.0mm
10:34 67.1 °F /  19.5 °C 60.6 °F /  15.9 °C 29.9in /  1013.6hPa NNE 4.3mph /  6.9km/h 10.7mph /  17.2km/h 79.8% 0in /  0.0mm
10:39 67.3 °F /  19.6 °C 60.6 °F /  15.9 °C 29.9in /  1013.6hPa NE 4.9mph /  7.9km/h 11mph /  17.7km/h 79% 0in /  0.0mm
10:44 67.6 °F /  19.8 °C 60.4 °F /  15.8 °C 29.9in /  1013.6hPa NNE 5.9mph /  9.5km/h 10.7mph /  17.2km/h 78% 0in /  0.0mm
10:49 68.2 °F /  20.1 °C 60.3 °F /  15.7 °C 29.9in /  1013.6hPa NNE 5.7mph /  9.2km/h 11.5mph /  18.5km/h 76.1% 0in /  0.0mm
10:54 68.4 °F /  20.2 °C 59.9 °F /  15.5 °C 29.9in /  1013.5hPa NE 5.4mph /  8.7km/h 12mph /  19.3km/h 74.4% 0in /  0.0mm
10:59 68.5 °F /  20.3 °C 59.4 °F /  15.2 °C 29.9in /  1013.5hPa NE 6mph /  9.7km/h 12mph /  19.3km/h 72.3% 0in /  0.0mm
11:04 68.5 °F /  20.3 °C 59.2 °F /  15.1 °C 29.9in /  1013.6hPa NE 6.9mph /  11.1km/h 12mph /  19.3km/h 72% 0in /  0.0mm
11:09 68.7 °F /  20.4 °C 59.7 °F /  15.4 °C 29.9in /  1013.6hPa NNE 6.2mph /  10km/h 12.7mph /  20.4km/h 72.7% 0in /  0.0mm
11:14 69.1 °F /  20.6 °C 59.5 °F /  15.3 °C 29.9in /  1013.6hPa NE 5.2mph /  8.4km/h 13mph /  20.9km/h 71.8% 0in /  0.0mm
11:19 69.3 °F /  20.7 °C 58.6 °F /  14.8 °C 29.9in /  1013.6hPa NNE 5.6mph /  9km/h 10mph /  16.1km/h 68.9% 0in /  0.0mm
11:24 69.4 °F /  20.8 °C 59 °F /  15 °C 29.9in /  1013.6hPa NNE 6.2mph /  10km/h 10mph /  16.1km/h 69.5% 0in /  0.0mm
11:29 69.4 °F /  20.8 °C 58.8 °F /  14.9 °C 29.9in /  1013.6hPa NE 5.9mph /  9.5km/h 9mph /  14.5km/h 68.8% 0in /  0.0mm
11:34 69.8 °F /  21 °C 59 °F /  15 °C 29.9in /  1013.6hPa NE 5.4mph /  8.7km/h 10.4mph /  16.7km/h 68.5% 0in /  0.0mm
11:39 70.2 °F /  21.2 °C 59 °F /  15 °C 29.9in /  1013.6hPa NE 5.2mph /  8.3km/h 10.4mph /  16.7km/h 68.1% 0in /  0.0mm
11:44 70.2 °F /  21.2 °C 58.8 °F /  14.9 °C 29.9in /  1013.6hPa NE 4.7mph /  7.6km/h 10.4mph /  16.7km/h 67.4% 0in /  0.0mm
11:49 70.3 °F /  21.3 °C 59.2 °F /  15.1 °C 29.9in /  1013.6hPa NE 5.2mph /  8.4km/h 10mph /  16.1km/h 67.4% 0in /  0.0mm
11:54 70.7 °F /  21.5 °C 59.5 °F /  15.3 °C 29.9in /  1013.6hPa NNE 6.2mph /  10km/h 10.4mph /  16.7km/h 67.8% 0in /  0.0mm
11:59 71.1 °F /  21.7 °C 59.5 °F /  15.3 °C 29.9in /  1013.6hPa NNE 6.1mph /  9.8km/h 11.5mph /  18.5km/h 67% 0in /  0.0mm
12:04 71.1 °F /  21.7 °C 59.2 °F /  15.1 °C 29.9in /  1013.6hPa NE 5.9mph /  9.5km/h 12mph /  19.3km/h 66.1% 0in /  0.0mm
12:09 71.1 °F /  21.7 °C 58.5 °F /  14.7 °C 29.9in /  1013.6hPa NNE 6mph /  9.7km/h 11.5mph /  18.5km/h 64.5% 0in /  0.0mm
12:14 71.2 °F /  21.8 °C 58.3 °F /  14.6 °C 29.9in /  1013.6hPa NE 6.2mph /  10km/h 12mph /  19.3km/h 63.7% 0in /  0.0mm
12:19 71.8 °F /  22.1 °C 58.3 °F /  14.6 °C 29.9in /  1013.6hPa NE 5.7mph /  9.1km/h 8.1mph /  13km/h 62.7% 0in /  0.0mm
12:24 72.1 °F /  22.3 °C 58.1 °F /  14.5 °C 29.9in /  1013.5hPa NE 4.7mph /  7.6km/h 13.8mph /  22.2km/h 61.5% 0in /  0.0mm
12:29 72.5 °F /  22.5 °C 57.9 °F /  14.4 °C 29.9in /  1013.5hPa NNE 5.2mph /  8.3km/h 14mph /  22.5km/h 60.5% 0in /  0.0mm
12:34 72.7 °F /  22.6 °C 57.9 °F /  14.4 °C 29.9in /  1013.5hPa NNE 5.9mph /  9.5km/h 12mph /  19.3km/h 60% 0in /  0.0mm
12:39 72.9 °F /  22.7 °C 57.9 °F /  14.4 °C 29.9in /  1013.5hPa NE 5.2mph /  8.4km/h 8.1mph /  13km/h 59.5% 0in /  0.0mm
12:44 73 °F /  22.8 °C 57.9 °F /  14.4 °C 29.9in /  1013.5hPa NNE 4mph /  6.5km/h 10.7mph /  17.2km/h 58.9% 0in /  0.0mm
12:49 73.4 °F /  23 °C 57.7 °F /  14.3 °C 29.9in /  1013.5hPa North 4mph /  6.5km/h 11mph /  17.7km/h 58.1% 0in /  0.0mm
12:54 73.8 °F /  23.2 °C 57.9 °F /  14.4 °C 29.9in /  1013.4hPa NE 4mph /  6.5km/h 10mph /  16.1km/h 57.6% 0in /  0.0mm
12:59 73.9 °F /  23.3 °C 57.7 °F /  14.3 °C 29.9in /  1013.4hPa NE 4.3mph /  6.9km/h 10.4mph /  16.7km/h 57.1% 0in /  0.0mm
13:04 74.1 °F /  23.4 °C 57.7 °F /  14.3 °C 29.9in /  1013.4hPa NE 4.7mph /  7.6km/h 12.7mph /  20.4km/h 56.6% 0in /  0.0mm
13:09 73.9 °F /  23.3 °C 57.6 °F /  14.2 °C 29.9in /  1013.2hPa ENE 5.3mph /  8.5km/h 13mph /  20.9km/h 56.6% 0in /  0.0mm
13:14 74.1 °F /  23.4 °C 57.9 °F /  14.4 °C 29.9in /  1013.2hPa NE 6.2mph /  10km/h 12.7mph /  20.4km/h 56.8% 0in /  0.0mm
13:19 74.7 °F /  23.7 °C 57.6 °F /  14.2 °C 29.9in /  1013.2hPa Este 5.9mph /  9.5km/h 13mph /  20.9km/h 55.2% 0in /  0.0mm
13:24 74.8 °F /  23.8 °C 56.8 °F /  13.8 °C 29.9in /  1013.2hPa ESE 5.4mph /  8.7km/h 12.7mph /  20.4km/h 53.5% 0in /  0.0mm
13:29 75.2 °F /  24 °C 56.7 °F /  13.7 °C 29.9in /  1013.2hPa ENE 5.6mph /  9km/h 13mph /  20.9km/h 52.6% 0in /  0.0mm
13:34 75.7 °F /  24.3 °C 54.5 °F /  12.5 °C 29.9in /  1013.3hPa ESE 5.9mph /  9.5km/h 12mph /  19.3km/h 47.7% 0in /  0.0mm
13:39 75.9 °F /  24.4 °C 54.5 °F /  12.5 °C 29.9in /  1013.3hPa ESE 6mph /  9.7km/h 11.2mph /  18km/h 47.5% 0in /  0.0mm
13:44 75.7 °F /  24.3 °C 54.3 °F /  12.4 °C 29.9in /  1013.3hPa SE 6.2mph /  10km/h 12mph /  19.3km/h 47.3% 0in /  0.0mm
13:49 75.7 °F /  24.3 °C 54.5 °F /  12.5 °C 29.9in /  1013.3hPa ESE 6.1mph /  9.8km/h 12.7mph /  20.4km/h 47.7% 0in /  0.0mm
13:54 76.3 °F /  24.6 °C 54 °F /  12.2 °C 29.9in /  1013.1hPa ESE 5.9mph /  9.5km/h 13mph /  20.9km/h 46.1% 0in /  0.0mm
13:59 76.5 °F /  24.7 °C 53.1 °F /  11.7 °C 29.9in /  1013.1hPa ESE 6mph /  9.7km/h 13mph /  20.9km/h 44.4% 0in /  0.0mm
14:04 76.3 °F /  24.6 °C 53.4 °F /  11.9 °C 29.9in /  1013.1hPa ESE 6.2mph /  10km/h 11.8mph /  19km/h 45.1% 0in /  0.0mm
14:09 76.3 °F /  24.6 °C 54.3 °F /  12.4 °C 29.9in /  1013.1hPa Este 5.9mph /  9.5km/h 12.7mph /  20.4km/h 46.5% 0in /  0.0mm
14:14 76.5 °F /  24.7 °C 54.7 °F /  12.6 °C 29.9in /  1013.1hPa ESE 5.4mph /  8.7km/h 13mph /  20.9km/h 46.8% 0in /  0.0mm
14:19 77.2 °F /  25.1 °C 54.5 °F /  12.5 °C 29.9in /  1013.1hPa ESE 5.8mph /  9.3km/h 15mph /  24.1km/h 45.6% 0in /  0.0mm
14:24 77 °F /  25 °C 54.1 °F /  12.3 °C 29.9in /  1013.1hPa SE 6.4mph /  10.3km/h 16.1mph /  25.9km/h 45.2% 0in /  0.0mm
14:29 76.6 °F /  24.8 °C 53.6 °F /  12 °C 29.9in /  1013.1hPa SE 7.1mph /  11.5km/h 16mph /  25.7km/h 44.9% 0in /  0.0mm
14:34 76.5 °F /  24.7 °C 54.9 °F /  12.7 °C 29.9in /  1013.1hPa ESE 8.5mph /  13.7km/h 16.3mph /  26.2km/h 47.1% 0in /  0.0mm
14:39 76.5 °F /  24.7 °C 55.4 °F /  13 °C 29.9in /  1012.9hPa ESE 8.5mph /  13.7km/h 16mph /  25.7km/h 48.3% 0in /  0.0mm
14:44 76.3 °F /  24.6 °C 55.8 °F /  13.2 °C 29.9in /  1012.9hPa Este 8.5mph /  13.7km/h 15mph /  24.1km/h 49.3% 0in /  0.0mm
14:49 76.3 °F /  24.6 °C 56.1 °F /  13.4 °C 29.9in /  1012.9hPa Este 8.1mph /  13.1km/h 15mph /  24.1km/h 49.8% 0in /  0.0mm
14:54 75.7 °F /  24.3 °C 56.1 °F /  13.4 °C 29.9in /  1012.8hPa Este 7.6mph /  12.2km/h 15mph /  24.1km/h 50.5% 0in /  0.0mm
14:59 75.7 °F /  24.3 °C 56.8 °F /  13.8 °C 29.9in /  1012.8hPa ESE 7.8mph /  12.6km/h 16.1mph /  25.9km/h 51.7% 0in /  0.0mm
15:04 75.7 °F /  24.3 °C 56.5 °F /  13.6 °C 29.9in /  1012.8hPa ESE 8.1mph /  13km/h 19.6mph /  31.5km/h 51.1% 0in /  0.0mm
15:09 75.7 °F /  24.3 °C 55.9 °F /  13.3 °C 29.9in /  1012.8hPa Este 8.7mph /  14km/h 20mph /  32.2km/h 50.3% 0in /  0.0mm
15:14 75.7 °F /  24.3 °C 56.8 °F /  13.8 °C 29.9in /  1012.8hPa Este 9.7mph /  15.6km/h 15mph /  24.1km/h 52% 0in /  0.0mm
15:19 75.6 °F /  24.2 °C 56.7 °F /  13.7 °C 29.9in /  1012.8hPa Este 8.8mph /  14.2km/h 13mph /  20.9km/h 51.9% 0in /  0.0mm
15:24 75.6 °F /  24.2 °C 56.8 °F /  13.8 °C 29.9in /  1012.8hPa ESE 7.4mph /  11.9km/h 19mph /  30.6km/h 52.3% 0in /  0.0mm
15:29 75.7 °F /  24.3 °C 56.8 °F /  13.8 °C 29.9in /  1012.8hPa ESE 7.4mph /  11.9km/h 19mph /  30.6km/h 52% 0in /  0.0mm
15:34 75.7 °F /  24.3 °C 56.8 °F /  13.8 °C 29.9in /  1012.8hPa ESE 7.4mph /  11.9km/h 13mph /  20.9km/h 52% 0in /  0.0mm
15:39 75.6 °F /  24.2 °C 57 °F /  13.9 °C 29.9in /  1012.8hPa ESE 7.6mph /  12.3km/h 13mph /  20.9km/h 52.7% 0in /  0.0mm
15:44 75.2 °F /  24 °C 57 °F /  13.9 °C 29.9in /  1012.8hPa Este 8.1mph /  13km/h 14mph /  22.5km/h 53.3% 0in /  0.0mm
15:49 74.8 °F /  23.8 °C 57.2 °F /  14 °C 29.9in /  1012.9hPa Este 7.9mph /  12.7km/h 14mph /  22.5km/h 54% 0in /  0.0mm
15:54 74.5 °F /  23.6 °C 57.2 °F /  14 °C 29.9in /  1012.9hPa Este 7.6mph /  12.2km/h 16.1mph /  25.9km/h 55% 0in /  0.0mm
15:59 74.1 °F /  23.4 °C 57 °F /  13.9 °C 29.9in /  1012.9hPa Este 8.3mph /  13.3km/h 16mph /  25.7km/h 55.1% 0in /  0.0mm
16:04 74.1 °F /  23.4 °C 57.4 °F /  14.1 °C 29.9in /  1013.0hPa Este 9.2mph /  14.8km/h 15mph /  24.1km/h 55.8% 0in /  0.0mm
16:09 73.9 °F /  23.3 °C 57.4 °F /  14.1 °C 29.9in /  1013.0hPa Este 9mph /  14.5km/h 17mph /  27.4km/h 56.2% 0in /  0.0mm
16:14 73.8 °F /  23.2 °C 57 °F /  13.9 °C 29.9in /  1013.0hPa ESE 8.7mph /  14km/h 18.4mph /  29.6km/h 56% 0in /  0.0mm
16:19 73.6 °F /  23.1 °C 56.8 °F /  13.8 °C 29.9in /  1013.0hPa Este 9.4mph /  15.2km/h 18mph /  29km/h 56% 0in /  0.0mm
16:24 73.6 °F /  23.1 °C 57.2 °F /  14 °C 29.9in /  1013.0hPa Este 10.7mph /  17.2km/h 16mph /  25.7km/h 56.7% 0in /  0.0mm
16:29 73.6 °F /  23.1 °C 57.4 °F /  14.1 °C 29.9in /  1013.0hPa ESE 9.4mph /  15.2km/h 18.5mph /  29.8km/h 56.7% 0in /  0.0mm
16:34 73.6 °F /  23.1 °C 56.8 °F /  13.8 °C 29.9in /  1013.2hPa ESE 7.4mph /  11.9km/h 19mph /  30.6km/h 56.1% 0in /  0.0mm
16:39 73.2 °F /  22.9 °C 57 °F /  13.9 °C 29.9in /  1013.2hPa ESE 8.6mph /  13.9km/h 18mph /  29km/h 56.7% 0in /  0.0mm
16:44 73.4 °F /  23 °C 57.2 °F /  14 °C 29.9in /  1013.2hPa ESE 10.7mph /  17.2km/h 16.3mph /  26.2km/h 56.9% 0in /  0.0mm
16:49 73.2 °F /  22.9 °C 57 °F /  13.9 °C 29.9in /  1013.2hPa ESE 10.4mph /  16.8km/h 20.7mph /  33.3km/h 57% 0in /  0.0mm
16:54 72.9 °F /  22.7 °C 57 °F /  13.9 °C 29.9in /  1013.2hPa ESE 10mph /  16.1km/h 21mph /  33.8km/h 57.8% 0in /  0.0mm
16:59 73 °F /  22.8 °C 57.2 °F /  14 °C 29.9in /  1013.2hPa SE 10mph /  16.1km/h 17.3mph /  27.8km/h 57.8% 0in /  0.0mm
17:04 73 °F /  22.8 °C 57.4 °F /  14.1 °C 29.9in /  1013.2hPa ESE 10mph /  16.1km/h 17mph /  27.4km/h 58% 0in /  0.0mm
17:09 72.5 °F /  22.5 °C 57.2 °F /  14 °C 29.9in /  1013.2hPa ESE 9.7mph /  15.6km/h 16.3mph /  26.2km/h 58.7% 0in /  0.0mm
17:14 72.3 °F /  22.4 °C 57.6 °F /  14.2 °C 29.9in /  1013.2hPa ESE 9.2mph /  14.8km/h 16mph /  25.7km/h 59.9% 0in /  0.0mm
17:19 72.1 °F /  22.3 °C 57.4 °F /  14.1 °C 29.9in /  1013.3hPa Este 8.4mph /  13.5km/h 12.7mph /  20.4km/h 59.5% 0in /  0.0mm
17:24 72 °F /  22.2 °C 57 °F /  13.9 °C 29.9in /  1013.3hPa ESE 6.9mph /  11.1km/h 13mph /  20.9km/h 59.5% 0in /  0.0mm
17:29 71.8 °F /  22.1 °C 57.2 °F /  14 °C 29.9in /  1013.3hPa ESE 7.1mph /  11.5km/h 12mph /  19.3km/h 60% 0in /  0.0mm
17:34 71.6 °F /  22 °C 57.2 °F /  14 °C 29.9in /  1013.5hPa ESE 7.6mph /  12.2km/h 15mph /  24.1km/h 60.2% 0in /  0.0mm
17:39 71.4 °F /  21.9 °C 57.4 °F /  14.1 °C 29.9in /  1013.5hPa Este 7.1mph /  11.5km/h 15mph /  24.1km/h 61% 0in /  0.0mm
17:44 71.2 °F /  21.8 °C 57.2 °F /  14 °C 29.9in /  1013.5hPa ENE 6.4mph /  10.3km/h 12mph /  19.3km/h 61% 0in /  0.0mm
17:49 71.2 °F /  21.8 °C 57.2 °F /  14 °C 29.9in /  1013.5hPa Este 6mph /  9.7km/h 12mph /  19.3km/h 61.1% 0in /  0.0mm
17:54 71.2 °F /  21.8 °C 57.7 °F /  14.3 °C 29.9in /  1013.5hPa Este 5.4mph /  8.7km/h 11mph /  17.7km/h 62.6% 0in /  0.0mm
17:59 71.1 °F /  21.7 °C 58.1 °F /  14.5 °C 29.9in /  1013.5hPa ENE 5.3mph /  8.6km/h 10mph /  16.1km/h 63.7% 0in /  0.0mm
18:04 70.7 °F /  21.5 °C 58.6 °F /  14.8 °C 29.9in /  1014.0hPa NNE 5.2mph /  8.4km/h 8.7mph /  14km/h 65.8% 0in /  0.0mm
18:09 70.3 °F /  21.3 °C 59.2 °F /  15.1 °C 29.9in /  1014.0hPa North 5mph /  8.1km/h 9.2mph /  14.8km/h 67.9% 0in /  0.0mm
18:14 70 °F /  21.1 °C 59.4 °F /  15.2 °C 29.9in /  1014.0hPa NNE 4.7mph /  7.6km/h 9.7mph /  15.6km/h 69% 0in /  0.0mm
18:19 69.6 °F /  20.9 °C 59.2 °F /  15.1 °C 30in /  1014.5hPa NNE 4.7mph /  7.6km/h 10mph /  16.1km/h 69.3% 0in /  0.0mm
18:24 69.6 °F /  20.9 °C 59.4 °F /  15.2 °C 30in /  1014.5hPa NNE 4.7mph /  7.6km/h 8.5mph /  13.7km/h 69.8% 0in /  0.0mm
18:29 69.4 °F /  20.8 °C 59.2 °F /  15.1 °C 30in /  1014.5hPa NNE 4.9mph /  7.9km/h 9.2mph /  14.8km/h 69.9% 0in /  0.0mm
18:34 69.3 °F /  20.7 °C 59.5 °F /  15.3 °C 30in /  1014.9hPa North 5.2mph /  8.4km/h 9mph /  14.5km/h 71.3% 0.02in /  0.5mm
18:39 68.9 °F /  20.5 °C 59.5 °F /  15.3 °C 30in /  1014.9hPa NNO 5.2mph /  8.4km/h 16.1mph /  25.9km/h 71.9% 0.03in /  0.8mm
18:44 67.1 °F /  19.5 °C 55.9 °F /  13.3 °C 30in /  1014.9hPa NNO 5.2mph /  8.4km/h 19.6mph /  31.5km/h 67.2% 0.03in /  0.8mm
18:49 64.9 °F /  18.3 °C 55 °F /  12.8 °C 30in /  1014.9hPa NNO 7.6mph /  12.2km/h 20mph /  32.2km/h 70% 0.03in /  0.8mm
18:54 63.9 °F /  17.7 °C 55.4 °F /  13 °C 30in /  1014.9hPa NNO 11.2mph /  18km/h 17mph /  27.4km/h 73.6% 0.04in /  1.0mm
18:59 63.3 °F /  17.4 °C 55.2 °F /  12.9 °C 30in /  1014.9hPa North 9.3mph /  14.9km/h 13mph /  20.9km/h 75.1% 0.06in /  1.5mm
19:04 62.8 °F /  17.1 °C 54.9 °F /  12.7 °C 30in /  1014.9hPa NNE 6.4mph /  10.3km/h 15mph /  24.1km/h 75% 0.08in /  2.0mm
19:09 62.2 °F /  16.8 °C 55 °F /  12.8 °C 30in /  1014.5hPa NE 7.5mph /  12.1km/h 15mph /  24.1km/h 76.9% 0.09in /  2.3mm
19:14 62.1 °F /  16.7 °C 55.2 °F /  12.9 °C 30in /  1014.5hPa NE 9.2mph /  14.8km/h 14mph /  22.5km/h 78.1% 0.09in /  2.3mm
19:19 62.2 °F /  16.8 °C 55.2 °F /  12.9 °C 30in /  1014.5hPa NE 8.9mph /  14.4km/h 14mph /  22.5km/h 78.3% 0.09in /  2.3mm
19:24 62.4 °F /  16.9 °C 55.9 °F /  13.3 °C 29.9in /  1013.6hPa ENE 8.5mph /  13.7km/h 14mph /  22.5km/h 79.3% 0.1in /  2.6mm
19:29 62.2 °F /  16.8 °C 55.9 °F /  13.3 °C 29.9in /  1013.6hPa ENE 8.1mph /  13km/h 13.8mph /  22.2km/h 79.9% 0.1in /  2.6mm
19:34 62.2 °F /  16.8 °C 55.6 °F /  13.1 °C 29.9in /  1013.6hPa Este 7.4mph /  11.9km/h 14mph /  22.5km/h 78.7% 0.1in /  2.6mm
19:39 62.6 °F /  17 °C 55.2 °F /  12.9 °C 29.9in /  1012.8hPa ENE 6.8mph /  11km/h 10.4mph /  16.7km/h 76.7% 0.08in /  2.1mm
19:44 63.1 °F /  17.3 °C 55.2 °F /  12.9 °C 29.9in /  1012.8hPa North 5.9mph /  9.5km/h 10mph /  16.1km/h 75.7% 0.07in /  1.8mm
19:49 63.7 °F /  17.6 °C 56.7 °F /  13.7 °C 29.9in /  1013.1hPa Oeste 5mph /  8.1km/h 8mph /  12.9km/h 77.6% 0.07in /  1.8mm
19:54 64 °F /  17.8 °C 56.5 °F /  13.6 °C 29.9in /  1013.1hPa SO 3.6mph /  5.8km/h 7mph /  11.3km/h 76.6% 0.07in /  1.8mm
19:59 64.2 °F /  17.9 °C 56.3 °F /  13.5 °C 29.9in /  1013.1hPa SSO 3.7mph /  6km/h 6.9mph /  11.1km/h 75.4% 0.06in /  1.6mm
20:04 64.8 °F /  18.2 °C 56.5 °F /  13.6 °C 29.9in /  1013.1hPa SSO 4mph /  6.5km/h 8.5mph /  13.7km/h 74.9% 0.04in /  1.1mm
20:09 65.1 °F /  18.4 °C 56.1 °F /  13.4 °C 29.9in /  1012.8hPa SSO 4.7mph /  7.6km/h 10.7mph /  17.2km/h 72.8% 0.02in /  0.6mm
20:14 65.7 °F /  18.7 °C 56.5 °F /  13.6 °C 29.9in /  1012.8hPa SSO 5.9mph /  9.5km/h 11.8mph /  19km/h 72.3% 0.01in /  0.3mm
20:19 65.7 °F /  18.7 °C 56.7 °F /  13.7 °C 29.9in /  1013.4hPa OSO 5.7mph /  9.2km/h 12mph /  19.3km/h 72.7% 0.01in /  0.3mm
20:24 65.5 °F /  18.6 °C 56.5 °F /  13.6 °C 29.9in /  1013.4hPa ONO 5.4mph /  8.7km/h 11mph /  17.7km/h 72.5% 0in /  0.0mm
20:29 65.5 °F /  18.6 °C 56.5 °F /  13.6 °C 29.9in /  1013.4hPa Oeste 5.7mph /  9.2km/h 9.2mph /  14.8km/h 72.8% 0in /  0.0mm
20:34 65.5 °F /  18.6 °C 56.3 °F /  13.5 °C 29.9in /  1013.7hPa ONO 6.2mph /  10km/h 9.7mph /  15.6km/h 72.4% 0in /  0.0mm
20:39 65.5 °F /  18.6 °C 56.3 °F /  13.5 °C 29.9in /  1013.7hPa ONO 6.1mph /  9.8km/h 10mph /  16.1km/h 72.1% 0in /  0.0mm
20:44 65.5 °F /  18.6 °C 56.8 °F /  13.8 °C 29.9in /  1013.7hPa NO 5.9mph /  9.5km/h 9mph /  14.5km/h 73.7% 0in /  0.0mm
20:49 65.5 °F /  18.6 °C 57.2 °F /  14 °C 30in /  1014.3hPa North 5mph /  8.1km/h 6mph /  9.7km/h 74.6% 0in /  0.0mm
20:54 65.5 °F /  18.6 °C 57.7 °F /  14.3 °C 30in /  1014.3hPa North 3.6mph /  5.8km/h 7.4mph /  11.9km/h 76.3% 0in /  0.0mm
20:59 65.3 °F /  18.5 °C 57.9 °F /  14.4 °C 30in /  1014.3hPa NNO 3.4mph /  5.5km/h 7mph /  11.3km/h 77.2% 0in /  0.0mm
21:04 65.1 °F /  18.4 °C 57.9 °F /  14.4 °C 30in /  1014.5hPa NNE 3.1mph /  5km/h 6mph /  9.7km/h 77.6% 0in /  0.0mm
21:09 64.8 °F /  18.2 °C 57.6 °F /  14.2 °C 30in /  1014.5hPa NNE 3.1mph /  5km/h 6.9mph /  11.1km/h 77.3% 0in /  0.0mm
21:14 64.6 °F /  18.1 °C 57.6 °F /  14.2 °C 30in /  1014.5hPa NE 3.1mph /  5km/h 7mph /  11.3km/h 78% 0in /  0.0mm
21:19 64.2 °F /  17.9 °C 57.6 °F /  14.2 °C 30in /  1014.6hPa NNE 3.3mph /  5.3km/h 6mph /  9.7km/h 78.8% 0in /  0.0mm
21:24 64.2 °F /  17.9 °C 57.6 °F /  14.2 °C 30in /  1014.6hPa NNO 3.6mph /  5.8km/h 5mph /  8km/h 79.1% 0in /  0.0mm
21:29 64.2 °F /  17.9 °C 57.6 °F /  14.2 °C 30in /  1014.6hPa North 3.1mph /  5km/h 5mph /  8km/h 79.2% 0in /  0.0mm
21:34 64 °F /  17.8 °C 57.7 °F /  14.3 °C 30in /  1014.7hPa NNE 2.4mph /  3.9km/h 5mph /  8km/h 80% 0in /  0.0mm
21:39 64 °F /  17.8 °C 57.7 °F /  14.3 °C 30in /  1014.7hPa NNE 2.2mph /  3.6km/h 5.4mph /  8.7km/h 80% 0in /  0.0mm
21:44 63.9 °F /  17.7 °C 57.6 °F /  14.2 °C 30in /  1014.7hPa NE 2mph /  3.2km/h 6.9mph /  11.1km/h 80% 0in /  0.0mm
21:49 63.9 °F /  17.7 °C 57.6 °F /  14.2 °C 30in /  1014.9hPa NE 2.6mph /  4.2km/h 7mph /  11.3km/h 80% 0in /  0.0mm
21:54 63.9 °F /  17.7 °C 57.6 °F /  14.2 °C 30in /  1014.9hPa NE 3.6mph /  5.8km/h 6mph /  9.7km/h 80% 0in /  0.0mm
21:59 63.9 °F /  17.7 °C 57.6 °F /  14.2 °C 30in /  1014.9hPa NE 3.4mph /  5.5km/h 6mph /  9.7km/h 80% 0in /  0.0mm
22:04 64 °F /  17.8 °C 57.7 °F /  14.3 °C 30in /  1015.2hPa NE 3.1mph /  5km/h 5.4mph /  8.7km/h 80.2% 0in /  0.0mm
22:09 63.9 °F /  17.7 °C 57.9 °F /  14.4 °C 30in /  1015.2hPa NE 3.3mph /  5.3km/h 6mph /  9.7km/h 81% 0in /  0.0mm
22:14 63.7 °F /  17.6 °C 57.9 °F /  14.4 °C 30in /  1015.2hPa NE 3.6mph /  5.8km/h 6mph /  9.7km/h 81.7% 0in /  0.0mm
22:19 63.7 °F /  17.6 °C 58.1 °F /  14.5 °C 30in /  1015.2hPa NE 3.4mph /  5.5km/h 5mph /  8km/h 81.9% 0in /  0.0mm
22:24 63.5 °F /  17.5 °C 57.9 °F /  14.4 °C 30in /  1015.2hPa NE 3.1mph /  5km/h 5mph /  8km/h 82% 0in /  0.0mm
22:29 63.5 °F /  17.5 °C 57.9 °F /  14.4 °C 30in /  1015.2hPa NE 2.7mph /  4.3km/h 5mph /  8km/h 82% 0in /  0.0mm
22:34 63.7 °F /  17.6 °C 57.9 °F /  14.4 °C 30in /  1015.6hPa NE 2mph /  3.2km/h 4.6mph /  7.4km/h 82% 0in /  0.0mm
22:39 63.7 °F /  17.6 °C 58.1 °F /  14.5 °C 30in /  1015.6hPa NE 2mph /  3.2km/h 5mph /  8km/h 82% 0in /  0.0mm
22:44 63.7 °F /  17.6 °C 58.3 °F /  14.6 °C 30in /  1015.6hPa NE 2mph /  3.2km/h 3mph /  4.8km/h 82.8% 0in /  0.0mm
22:49 63.7 °F /  17.6 °C 58.5 °F /  14.7 °C 30in /  1015.8hPa NE 1.2mph /  2km/h 2.4mph /  3.9km/h 83% 0in /  0.0mm
22:54 63.7 °F /  17.6 °C 58.5 °F /  14.7 °C 30in /  1015.8hPa Calm   2mph /  3.2km/h 83% 0in /  0.0mm
22:59 63.7 °F /  17.6 °C 58.5 °F /  14.7 °C 30in /  1015.8hPa Calm   2.4mph /  3.9km/h 83% 0in /  0.0mm
23:04 63.7 °F /  17.6 °C 58.5 °F /  14.7 °C 30in /  1015.9hPa Calm   5.2mph /  8.4km/h 83% 0in /  0.0mm
23:09 63.7 °F /  17.6 °C 58.1 °F /  14.5 °C 30in /  1015.9hPa ESE 0.7mph /  1.2km/h 5.2mph /  8.4km/h 82% 0in /  0.0mm
23:14 63.5 °F /  17.5 °C 57.9 °F /  14.4 °C 30in /  1015.9hPa ESE 2mph /  3.2km/h 5mph /  8km/h 82% 0in /  0.0mm
23:19 63.5 °F /  17.5 °C 57.9 °F /  14.4 °C 30in /  1015.9hPa ESE 1.8mph /  2.9km/h 3mph /  4.8km/h 82% 0in /  0.0mm
23:24 63.5 °F /  17.5 °C 57.7 °F /  14.3 °C 30in /  1015.8hPa ESE 1.4mph /  2.2km/h 5.9mph /  9.5km/h 81.7% 0in /  0.0mm
23:29 63.7 °F /  17.6 °C 57.7 °F /  14.3 °C 30in /  1015.8hPa ESE 1.8mph /  2.9km/h 6mph /  9.7km/h 81% 0in /  0.0mm
23:34 63.7 °F /  17.6 °C 57.7 °F /  14.3 °C 30in /  1015.8hPa ESE 2.4mph /  3.9km/h 6mph /  9.7km/h 81.2% 0in /  0.0mm
23:39 63.5 °F /  17.5 °C 57.9 °F /  14.4 °C 30in /  1015.7hPa SE 2.7mph /  4.3km/h 6mph /  9.7km/h 82% 0in /  0.0mm
23:44 63.3 °F /  17.4 °C 57.7 °F /  14.3 °C 30in /  1015.7hPa SE 3.1mph /  5km/h 5.8mph /  9.3km/h 82.2% 0in /  0.0mm
23:49 63.3 °F /  17.4 °C 58.1 °F /  14.5 °C 30in /  1015.8hPa SE 2.9mph /  4.6km/h 6mph /  9.7km/h 83% 0in /  0.0mm
23:54 63.1 °F /  17.3 °C 58.1 °F /  14.5 °C 30in /  1015.8hPa ONO 2.4mph /  3.9km/h 5.8mph /  9.3km/h 83% 0in /  0.0mm
23:59 63.1 °F /  17.3 °C 58.1 °F /  14.5 °C 30in /  1015.8hPa NNO 2.2mph /  3.6km/h 6mph /  9.7km/h 83.9% 0in /  0.0mm
Murcia-Puente Tocinos, España
Compliments of Weather Underground - 3 mb

La estación de MeteoMurcia.com, publica sus datos en los siguientes proyectos:

Weather Underground PWS IMURCIAP2 Meteoclimatic www.awekas.at

W3Counter
Web Analytics